createdAt,value
2018-08-23T00:01:37.796Z,57.40
2018-08-23T00:04:11.959Z,57.50
2018-08-23T00:06:50.143Z,57.70
2018-08-23T00:09:20.299Z,57.90
2018-08-23T00:11:50.454Z,57.90
2018-08-23T00:14:21.765Z,58.10
2018-08-23T00:16:51.993Z,58.20
2018-08-23T00:19:22.197Z,58.30
2018-08-23T00:21:52.410Z,58.40
2018-08-23T00:24:23.671Z,58.50
2018-08-23T00:26:57.249Z,58.60
2018-08-23T00:29:32.497Z,58.80
2018-08-23T00:32:04.199Z,58.90
2018-08-23T00:34:36.480Z,59.00
2018-08-23T00:37:07.228Z,59.10
2018-08-23T00:39:37.387Z,59.30
2018-08-23T00:42:09.182Z,59.50
2018-08-23T00:45:01.979Z,59.60
2018-08-23T00:47:34.082Z,59.80
2018-08-23T00:50:04.244Z,59.80
2018-08-23T00:52:48.500Z,60.00
2018-08-23T00:58:06.060Z,60.40
2018-08-23T01:00:36.258Z,60.30
2018-08-23T01:03:06.447Z,60.40
2018-08-23T01:05:37.536Z,60.30
2018-08-23T01:08:08.977Z,60.60
2018-08-23T01:10:41.242Z,60.80
2018-08-23T01:13:11.458Z,61.10
2018-08-23T01:15:44.218Z,61.20
2018-08-23T01:18:17.797Z,61.50
2018-08-23T01:20:49.272Z,61.60
2018-08-23T01:23:19.392Z,62.20
2018-08-23T01:25:50.223Z,61.60
2018-08-23T01:28:20.304Z,61.60
2018-08-23T01:30:50.981Z,61.80
2018-08-23T01:33:22.642Z,62.00
2018-08-23T01:35:53.097Z,61.80
2018-08-23T01:38:23.303Z,62.00
2018-08-23T01:40:59.689Z,62.00
2018-08-23T01:43:29.921Z,62.10
2018-08-23T01:46:00.077Z,62.20
2018-08-23T01:48:30.419Z,62.20
2018-08-23T01:51:00.541Z,62.30
2018-08-23T01:53:35.791Z,62.50
2018-08-23T01:56:06.319Z,62.70
2018-08-23T01:58:36.558Z,62.90
2018-08-23T02:01:17.099Z,63.20
2018-08-23T02:03:47.369Z,63.30
2018-08-23T02:06:17.621Z,63.70
2018-08-23T02:08:48.221Z,63.80
2018-08-23T02:11:18.308Z,64.00
2018-08-23T02:13:50.543Z,64.30
2018-08-23T02:16:20.668Z,64.40
2018-08-23T02:18:51.063Z,64.60
2018-08-23T02:21:21.202Z,64.90
2018-08-23T02:23:54.057Z,64.90
2018-08-23T02:26:24.203Z,65.10
2018-08-23T02:28:54.439Z,65.20
2018-08-23T02:31:24.560Z,66.20
2018-08-23T02:33:54.698Z,65.10
2018-08-23T02:36:25.398Z,64.90
2018-08-23T02:38:59.298Z,65.10
2018-08-23T02:41:29.604Z,65.20
2018-08-23T02:43:59.857Z,65.10
2018-08-23T02:46:32.018Z,65.40
2018-08-23T02:49:02.244Z,65.70
2018-08-23T02:51:43.022Z,65.60
2018-08-23T02:54:14.434Z,65.90
2018-08-23T02:56:49.824Z,66.00
2018-08-23T02:59:19.910Z,66.20
2018-08-23T03:01:50.791Z,66.40
2018-08-23T03:04:25.831Z,66.30
2018-08-23T03:06:58.202Z,66.20
2018-08-23T03:09:31.371Z,66.20
2018-08-23T03:12:17.023Z,66.30
2018-08-23T03:14:47.597Z,66.40
2018-08-23T03:17:22.174Z,66.70
2018-08-23T03:21:07.843Z,66.90
2018-08-23T03:23:38.002Z,67.00
2018-08-23T03:26:08.123Z,67.30
2018-08-23T03:28:38.238Z,67.50
2018-08-23T03:31:13.062Z,67.80
2018-08-23T03:33:43.228Z,67.70
2018-08-23T03:36:13.441Z,67.90
2018-08-23T03:38:43.589Z,68.10
2018-08-23T03:41:13.698Z,68.50
2018-08-23T03:43:43.856Z,68.60
2018-08-23T03:46:13.979Z,68.60
2018-08-23T03:48:45.639Z,68.80
2018-08-23T03:51:15.773Z,68.90
2018-08-23T03:53:50.902Z,68.80
2018-08-23T03:56:21.059Z,68.90
2018-08-23T03:58:51.303Z,69.00
2018-08-23T04:01:21.456Z,69.10
2018-08-23T04:03:51.727Z,69.10
2018-08-23T04:06:33.257Z,69.20
2018-08-23T04:09:03.441Z,69.50
2018-08-23T04:11:33.619Z,69.60
2018-08-23T04:14:03.792Z,69.70
2018-08-23T04:16:34.850Z,69.80
2018-08-23T04:19:05.072Z,69.70
2018-08-23T04:21:35.264Z,69.70
2018-08-23T04:24:05.558Z,70.00
2018-08-23T04:26:35.702Z,70.00
2018-08-23T04:29:05.983Z,71.00
2018-08-23T04:31:36.175Z,70.20
2018-08-23T04:34:07.879Z,70.30
2018-08-23T04:36:40.863Z,70.30
2018-08-23T04:39:12.502Z,70.10
2018-08-23T04:41:43.338Z,70.20
2018-08-23T04:44:16.493Z,70.20
2018-08-23T04:46:46.679Z,70.30
2018-08-23T04:49:16.882Z,70.30
2018-08-23T04:51:47.008Z,70.40
2018-08-23T04:54:17.115Z,70.60
2018-08-23T04:56:47.224Z,71.10
2018-08-23T04:59:17.322Z,71.50
2018-08-23T05:01:47.485Z,71.60
2018-08-23T05:04:17.537Z,71.50
2018-08-23T05:06:47.752Z,71.60
2018-08-23T05:09:17.897Z,71.80
2018-08-23T05:11:48.098Z,71.80
2018-08-23T05:14:18.245Z,71.80
2018-08-23T05:16:48.440Z,71.60
2018-08-23T05:19:18.538Z,71.50
2018-08-23T05:21:48.684Z,71.40
2018-08-23T05:24:18.963Z,71.60
2018-08-23T05:26:49.104Z,71.90
2018-08-23T05:29:19.283Z,72.40
2018-08-23T05:31:49.337Z,72.70
2018-08-23T05:34:19.562Z,72.90
2018-08-23T05:36:49.710Z,73.00
2018-08-23T05:39:22.146Z,73.00
2018-08-23T05:41:53.261Z,73.20
2018-08-23T05:44:23.423Z,73.90
2018-08-23T05:46:57.502Z,73.90
2018-08-23T05:49:28.275Z,73.70
2018-08-23T05:51:59.964Z,73.50
2018-08-23T05:54:30.069Z,73.60
2018-08-23T05:57:00.265Z,73.80
2018-08-23T05:59:30.348Z,73.70
2018-08-23T06:02:00.482Z,74.00
2018-08-23T06:04:42.651Z,74.20
2018-08-23T06:07:12.782Z,74.10
2018-08-23T06:09:43.665Z,74.30
2018-08-23T06:12:13.778Z,74.40
2018-08-23T06:14:43.985Z,74.60
2018-08-23T06:17:14.085Z,74.50
2018-08-23T06:19:44.236Z,74.60
2018-08-23T06:22:14.442Z,74.90
2018-08-23T06:24:44.635Z,75.10
2018-08-23T06:27:14.865Z,75.10
2018-08-23T06:29:45.073Z,75.10
2018-08-23T06:32:16.446Z,75.00
2018-08-23T06:34:50.894Z,75.00
2018-08-23T06:37:22.604Z,75.10
2018-08-23T06:39:52.786Z,75.00
2018-08-23T06:42:37.435Z,75.00
2018-08-23T06:45:07.883Z,75.00
2018-08-23T06:47:42.712Z,74.80
2018-08-23T06:50:12.989Z,74.90
2018-08-23T06:52:48.416Z,75.00
2018-08-23T06:55:36.359Z,75.10
2018-08-23T06:58:06.733Z,75.10
2018-08-23T07:00:37.008Z,75.30
2018-08-23T07:03:07.285Z,75.30
2018-08-23T07:05:37.592Z,75.20
2018-08-23T07:08:08.284Z,75.50
2018-08-23T07:10:38.596Z,75.40
2018-08-23T07:13:09.025Z,75.60
2018-08-23T07:15:41.462Z,75.40
2018-08-23T07:18:16.252Z,75.20
2018-08-23T07:20:46.462Z,75.10
2018-08-23T07:23:31.084Z,74.70
2018-08-23T07:26:01.295Z,74.50
2018-08-23T07:28:32.015Z,74.20
2018-08-23T07:31:02.200Z,74.10
2018-08-23T07:33:34.875Z,73.50
2018-08-23T07:36:21.633Z,73.20
2018-08-23T07:38:51.854Z,72.90
2018-08-23T07:41:22.258Z,72.40
2018-08-23T07:43:52.492Z,71.90
2018-08-23T07:46:22.842Z,71.30
2018-08-23T07:48:52.942Z,70.50
2018-08-23T07:51:25.063Z,69.90
2018-08-23T07:53:58.667Z,69.20
2018-08-23T07:56:29.387Z,68.70
2018-08-23T07:58:59.506Z,68.00
2018-08-23T08:01:32.935Z,67.30
2018-08-23T08:04:03.258Z,67.00
2018-08-23T08:06:33.695Z,66.30
2018-08-23T08:09:04.661Z,66.20
2018-08-23T08:12:01.820Z,65.90
2018-08-23T08:14:38.004Z,65.50
2018-08-23T08:17:18.833Z,64.90
2018-08-23T08:19:56.799Z,64.70
2018-08-23T08:22:27.277Z,64.40
2018-08-23T08:25:16.745Z,63.90
2018-08-23T08:27:47.339Z,63.40
2018-08-23T08:30:21.536Z,63.00
2018-08-23T08:32:51.682Z,62.50
2018-08-23T08:35:21.891Z,62.20
2018-08-23T08:37:52.238Z,61.90
2018-08-23T08:40:23.849Z,61.40
2018-08-23T08:42:54.080Z,61.00
2018-08-23T08:45:27.979Z,60.50
2018-08-23T08:48:32.022Z,60.20
2018-08-23T08:51:21.692Z,59.90
2018-08-23T08:53:52.435Z,59.50
2018-08-23T08:56:33.121Z,59.20
2018-08-23T08:59:04.196Z,58.60
2018-08-23T09:01:34.458Z,58.70
2018-08-23T09:04:04.983Z,58.50
2018-08-23T09:06:50.736Z,58.10
2018-08-23T09:09:33.205Z,57.90
2018-08-23T09:12:07.939Z,57.80
2018-08-23T09:14:39.085Z,57.70
2018-08-23T09:17:30.594Z,57.20
2018-08-23T09:20:08.400Z,56.80
2018-08-23T09:22:53.793Z,56.80
2018-08-23T09:25:28.963Z,56.40
2018-08-23T09:27:59.161Z,55.80
2018-08-23T09:30:31.762Z,55.40
2018-08-23T09:33:06.887Z,55.20
2018-08-23T09:35:37.322Z,55.00
2018-08-23T09:38:13.668Z,54.80
2018-08-23T09:40:43.924Z,54.80
2018-08-23T09:43:14.199Z,54.70
2018-08-23T09:45:44.399Z,54.70
2018-08-23T09:48:14.719Z,54.70
2018-08-23T09:50:44.883Z,54.50
2018-08-23T09:53:19.923Z,54.40
2018-08-23T09:55:51.619Z,54.20
2018-08-23T09:58:27.944Z,53.90
2018-08-23T10:01:03.028Z,53.80
2018-08-23T10:03:38.135Z,53.40
2018-08-23T10:06:13.489Z,53.20
2018-08-23T10:08:48.808Z,52.90
2018-08-23T10:11:24.086Z,52.60
2018-08-23T10:13:59.337Z,52.00
2018-08-23T10:16:34.669Z,52.40
2018-08-23T10:19:09.837Z,52.10
2018-08-23T10:21:44.936Z,51.80
2018-08-23T10:24:20.309Z,51.70
2018-08-23T10:26:50.429Z,51.80
2018-08-23T10:29:20.544Z,51.30
2018-08-23T10:31:50.714Z,51.40
2018-08-23T10:34:20.873Z,51.20
2018-08-23T10:36:51.003Z,51.30
2018-08-23T10:39:21.157Z,51.20
2018-08-23T10:41:51.338Z,51.10
2018-08-23T10:44:21.641Z,50.90
2018-08-23T10:46:57.584Z,50.80
2018-08-23T10:49:27.901Z,50.70
2018-08-23T10:51:58.053Z,50.90
2018-08-23T10:54:28.234Z,50.50
2018-08-23T10:56:58.404Z,50.40
2018-08-23T10:59:28.628Z,50.20
2018-08-23T11:01:58.734Z,49.90
2018-08-23T11:04:29.048Z,49.70
2018-08-23T11:06:59.477Z,49.70
2018-08-23T11:09:34.730Z,49.70
2018-08-23T11:12:04.961Z,49.30
2018-08-23T11:14:41.063Z,49.50
2018-08-23T11:17:16.281Z,49.40
2018-08-23T11:19:51.446Z,49.40
2018-08-23T11:22:25.645Z,49.30
2018-08-23T11:24:55.824Z,48.80
2018-08-23T11:27:26.068Z,48.80
2018-08-23T11:29:56.500Z,48.80
2018-08-23T11:32:26.630Z,48.60
2018-08-23T11:34:56.864Z,48.80
2018-08-23T11:37:26.999Z,48.70
2018-08-23T11:39:57.349Z,48.80
2018-08-23T11:42:27.515Z,48.60
2018-08-23T11:44:57.802Z,48.50
2018-08-23T11:47:27.944Z,48.40
2018-08-23T11:49:58.162Z,48.10
2018-08-23T11:52:28.291Z,47.80
2018-08-23T11:54:58.560Z,47.70
2018-08-23T11:57:28.858Z,47.60
2018-08-23T11:59:59.085Z,47.50
2018-08-23T12:02:29.362Z,47.40
2018-08-23T12:04:59.678Z,47.50
2018-08-23T12:07:30.099Z,47.50
2018-08-23T12:10:00.394Z,47.40
2018-08-23T12:12:30.501Z,47.30
2018-08-23T12:15:03.260Z,47.30
2018-08-23T12:17:33.424Z,47.30
2018-08-23T12:20:03.655Z,47.20
2018-08-23T12:22:38.905Z,47.00
2018-08-23T12:25:09.075Z,47.10
2018-08-23T12:27:40.060Z,46.80
2018-08-23T12:30:10.399Z,46.70
2018-08-23T12:32:40.625Z,46.60
2018-08-23T12:35:10.838Z,46.60
2018-08-23T12:37:46.095Z,46.60
2018-08-23T12:40:21.339Z,46.30
2018-08-23T12:42:52.911Z,46.10
2018-08-23T12:45:23.084Z,46.10
2018-08-23T12:47:53.284Z,46.10
2018-08-23T12:50:23.447Z,46.20
2018-08-23T12:52:53.837Z,46.10
2018-08-23T12:55:24.108Z,45.90
2018-08-23T12:57:54.334Z,45.70
2018-08-23T13:00:24.525Z,45.60
2018-08-23T13:02:54.854Z,45.50
2018-08-23T13:05:25.089Z,45.50
2018-08-23T13:07:55.255Z,45.70
2018-08-23T13:10:25.465Z,45.60
2018-08-23T13:12:55.661Z,45.40
2018-08-23T13:15:25.797Z,45.30
2018-08-23T13:17:55.973Z,45.20
2018-08-23T13:20:26.204Z,45.20
2018-08-23T13:22:56.432Z,45.10
2018-08-23T13:25:29.302Z,45.20
2018-08-23T13:27:59.511Z,45.20
2018-08-23T13:30:29.761Z,45.10
2018-08-23T13:33:00.048Z,45.00
2018-08-23T13:35:30.356Z,45.00
2018-08-23T13:38:00.543Z,44.90
2018-08-23T13:40:30.784Z,45.50
2018-08-23T13:43:01.024Z,44.80
2018-08-23T13:45:31.263Z,44.60
2018-08-23T13:48:01.480Z,44.50
2018-08-23T13:50:31.643Z,44.30
2018-08-23T13:53:01.860Z,44.00
2018-08-23T13:55:32.010Z,43.70
2018-08-23T13:58:02.152Z,43.40
2018-08-23T14:00:37.256Z,43.40
2018-08-23T14:03:08.322Z,43.40
2018-08-23T14:05:39.649Z,43.30
2018-08-23T14:08:10.377Z,43.00
2018-08-23T14:10:40.617Z,42.70
2018-08-23T14:13:10.842Z,42.30
2018-08-23T14:15:46.115Z,41.90
2018-08-23T14:18:16.327Z,41.80
2018-08-23T14:20:46.536Z,42.00
2018-08-23T14:23:16.777Z,41.90
2018-08-23T14:25:46.870Z,41.90
2018-08-23T14:28:17.022Z,41.80
2018-08-23T14:30:47.227Z,41.60
2018-08-23T14:33:17.403Z,41.40
2018-08-23T14:35:47.605Z,41.40
2018-08-23T14:38:17.830Z,41.40
2018-08-23T14:40:48.152Z,41.40
2018-08-23T14:43:18.345Z,41.30
2018-08-23T14:45:48.562Z,41.10
2018-08-23T14:48:20.128Z,40.70
2018-08-23T14:50:54.346Z,40.60
2018-08-23T14:53:26.449Z,40.60
2018-08-23T14:56:01.636Z,41.10
2018-08-23T14:58:32.127Z,40.70
2018-08-23T15:01:02.429Z,40.40
2018-08-23T15:03:32.623Z,40.40
2018-08-23T15:06:02.952Z,40.40
2018-08-23T15:08:33.165Z,40.40
2018-08-23T15:11:03.380Z,40.40
2018-08-23T15:13:33.514Z,40.30
2018-08-23T15:16:03.779Z,40.20
2018-08-23T15:18:33.986Z,40.10
2018-08-23T15:21:04.146Z,40.00
2018-08-23T15:23:34.371Z,40.10
2018-08-23T15:26:04.588Z,40.20
2018-08-23T15:28:34.722Z,40.00
2018-08-23T15:31:04.868Z,40.20
2018-08-23T15:33:35.062Z,40.20
2018-08-23T15:36:05.222Z,40.20
2018-08-23T15:38:35.468Z,40.10
2018-08-23T15:41:05.843Z,40.00
2018-08-23T15:43:35.956Z,40.00
2018-08-23T15:46:06.241Z,39.80
2018-08-23T15:48:36.581Z,39.80
2018-08-23T15:51:06.917Z,39.70
2018-08-23T15:53:41.894Z,39.40
2018-08-23T15:56:12.233Z,39.40
2018-08-23T15:58:42.478Z,39.30
2018-08-23T16:01:12.679Z,39.60
2018-08-23T16:03:43.014Z,39.60
2018-08-23T16:06:13.304Z,39.80
2018-08-23T16:08:48.578Z,39.90
2018-08-23T16:11:19.162Z,40.00
2018-08-23T16:13:49.450Z,40.00
2018-08-23T16:16:24.713Z,40.00
2018-08-23T16:18:59.978Z,40.60
2018-08-23T16:21:35.151Z,39.90
2018-08-23T16:24:05.484Z,40.30
2018-08-23T16:26:40.852Z,40.40
2018-08-23T16:29:11.171Z,40.50
2018-08-23T16:31:41.389Z,40.60
2018-08-23T16:34:11.681Z,40.70
2018-08-23T16:36:42.036Z,40.80
2018-08-23T16:39:12.198Z,40.90
2018-08-23T16:41:42.389Z,40.90
2018-08-23T16:44:12.703Z,40.80
2018-08-23T16:46:42.959Z,41.00
2018-08-23T16:49:13.165Z,41.10
2018-08-23T16:51:43.425Z,41.30
2018-08-23T16:54:13.662Z,41.30
2018-08-23T16:56:43.891Z,41.40
2018-08-23T16:59:14.235Z,42.00
2018-08-23T17:01:44.401Z,41.50
2018-08-23T17:04:14.665Z,41.50
2018-08-23T17:06:46.104Z,41.50
2018-08-23T17:09:26.733Z,41.60
2018-08-23T17:11:57.197Z,41.70
2018-08-23T17:14:27.408Z,41.80
2018-08-23T17:17:02.677Z,42.20
2018-08-23T17:19:32.966Z,41.90
2018-08-23T17:22:03.258Z,42.00
2018-08-23T17:24:33.635Z,42.00
2018-08-23T17:27:03.878Z,42.20
2018-08-23T17:29:34.059Z,42.40
2018-08-23T17:32:04.276Z,42.50
2018-08-23T17:34:34.404Z,42.60
2018-08-23T17:37:04.579Z,42.70
2018-08-23T17:39:34.790Z,42.80
2018-08-23T17:42:05.068Z,43.00
2018-08-23T17:44:37.399Z,43.00
2018-08-23T17:47:07.792Z,43.10
2018-08-23T17:49:37.995Z,43.10
2018-08-23T17:52:08.324Z,43.20
2018-08-23T17:54:38.508Z,43.20
2018-08-23T17:57:08.790Z,43.30
2018-08-23T17:59:39.002Z,43.40
2018-08-23T18:02:09.525Z,43.60
2018-08-23T18:04:39.704Z,43.70
2018-08-23T18:07:09.855Z,43.80
2018-08-23T18:09:40.061Z,43.90
2018-08-23T18:12:10.560Z,44.20
2018-08-23T18:14:40.703Z,44.30
2018-08-23T18:17:10.878Z,44.50
2018-08-23T18:19:41.121Z,44.60
2018-08-23T18:22:11.395Z,44.80
2018-08-23T18:24:41.854Z,44.90
2018-08-23T18:27:12.009Z,45.10
2018-08-23T18:29:42.325Z,45.10
2018-08-23T18:32:12.483Z,45.20
2018-08-23T18:34:42.759Z,45.30
2018-08-23T18:37:13.063Z,45.50
2018-08-23T18:39:43.275Z,45.60
2018-08-23T18:42:13.498Z,45.80
2018-08-23T18:44:43.705Z,45.80
2018-08-23T18:47:14.168Z,45.90
2018-08-23T18:49:44.458Z,46.00
2018-08-23T18:52:14.658Z,46.00
2018-08-23T18:54:44.863Z,46.20
2018-08-23T18:57:15.025Z,46.20
2018-08-23T18:59:45.233Z,46.30
2018-08-23T19:02:15.385Z,46.30
2018-08-23T19:04:45.787Z,46.40
2018-08-23T19:07:21.159Z,46.50
2018-08-23T19:09:55.503Z,46.60
2018-08-23T19:12:25.657Z,46.80
2018-08-23T19:14:56.122Z,46.90
2018-08-23T19:17:44.545Z,47.00
2018-08-23T19:20:14.622Z,47.20
2018-08-23T19:22:44.831Z,47.30
2018-08-23T19:25:15.135Z,47.40
2018-08-23T19:27:45.351Z,47.50
2018-08-23T19:30:15.584Z,47.60
2018-08-23T19:32:45.747Z,47.70
2018-08-23T19:35:15.840Z,47.80
2018-08-23T19:37:46.093Z,47.90
2018-08-23T19:40:16.216Z,48.10
2018-08-23T19:42:46.425Z,48.00
2018-08-23T19:45:16.587Z,48.10
2018-08-23T19:47:51.878Z,48.10
2018-08-23T19:50:22.191Z,48.30
2018-08-23T19:52:52.339Z,48.40
2018-08-23T19:55:22.599Z,48.50
2018-08-23T19:57:52.707Z,48.50
2018-08-23T20:00:22.873Z,48.70
2018-08-23T20:02:53.062Z,48.80
2018-08-23T20:05:23.268Z,49.00
2018-08-23T20:07:53.417Z,49.10
2018-08-23T20:10:23.659Z,49.90
2018-08-23T20:12:53.783Z,49.40
2018-08-23T20:15:24.961Z,49.60
2018-08-23T20:17:56.753Z,49.70
2018-08-23T20:20:26.943Z,49.80
2018-08-23T20:22:57.186Z,49.90
2018-08-23T20:25:27.424Z,50.00
2018-08-23T20:27:57.580Z,50.00
2018-08-23T20:30:28.350Z,50.10
2018-08-23T20:32:59.459Z,50.20
2018-08-23T20:35:29.783Z,50.20
2018-08-23T20:37:59.960Z,50.30
2018-08-23T20:40:30.100Z,50.40
2018-08-23T20:43:00.448Z,50.40
2018-08-23T20:45:30.675Z,50.50
2018-08-23T20:48:00.884Z,50.60
2018-08-23T20:50:31.045Z,50.60
2018-08-23T20:53:01.501Z,50.70
2018-08-23T20:55:31.644Z,50.80
2018-08-23T20:58:02.219Z,50.80
2018-08-23T21:00:32.388Z,50.90
2018-08-23T21:03:02.904Z,51.10
2018-08-23T21:05:33.067Z,51.10
2018-08-23T21:08:03.509Z,51.10
2018-08-23T21:10:33.710Z,51.20
2018-08-23T21:13:03.859Z,51.40
2018-08-23T21:15:37.624Z,51.40
2018-08-23T21:18:10.890Z,51.50
2018-08-23T21:20:42.673Z,51.50
2018-08-23T21:23:12.818Z,52.30
2018-08-23T21:25:42.981Z,51.70
2018-08-23T21:28:13.124Z,51.80
2018-08-23T21:30:43.288Z,51.90
2018-08-23T21:33:13.520Z,52.10
2018-08-23T21:35:43.673Z,52.10
2018-08-23T21:38:13.813Z,52.10
2018-08-23T21:40:44.018Z,52.20
2018-08-23T21:43:14.304Z,52.40
2018-08-23T21:45:44.565Z,52.40
2018-08-23T21:48:14.831Z,52.50
2018-08-23T21:50:45.028Z,52.50
2018-08-23T21:53:15.798Z,52.70
2018-08-23T21:55:45.880Z,52.80
2018-08-23T21:58:16.118Z,53.00
2018-08-23T22:00:51.308Z,53.00
2018-08-23T22:03:21.571Z,53.30
2018-08-23T22:05:51.831Z,53.20
2018-08-23T22:08:21.918Z,53.30
2018-08-23T22:10:52.071Z,53.40
2018-08-23T22:13:22.218Z,53.40
2018-08-23T22:15:52.478Z,53.50
2018-08-23T22:18:22.678Z,53.80
2018-08-23T22:20:53.372Z,53.80
2018-08-23T22:23:23.522Z,54.00
2018-08-23T22:25:53.617Z,54.10
2018-08-23T22:28:23.817Z,54.20
2018-08-23T22:30:53.983Z,54.40
2018-08-23T22:33:24.122Z,54.50
2018-08-23T22:35:54.294Z,54.60
2018-08-23T22:38:24.441Z,54.90
2018-08-23T22:40:54.677Z,54.80
2018-08-23T22:43:24.890Z,54.80
2018-08-23T22:45:55.061Z,54.80
2018-08-23T22:48:25.125Z,55.20
2018-08-23T22:50:55.298Z,55.00
2018-08-23T22:53:25.428Z,55.10
2018-08-23T22:55:55.655Z,55.30
2018-08-23T22:58:25.878Z,55.30
2018-08-23T23:00:55.983Z,55.60
2018-08-23T23:03:31.447Z,55.40
2018-08-23T23:06:01.642Z,55.40
2018-08-23T23:08:31.859Z,55.60
2018-08-23T23:11:02.017Z,55.70
2018-08-23T23:13:32.182Z,55.80
2018-08-23T23:16:02.419Z,55.80
2018-08-23T23:18:32.523Z,55.80
2018-08-23T23:21:02.767Z,56.00
2018-08-23T23:23:32.947Z,56.00
2018-08-23T23:26:03.184Z,56.00
2018-08-23T23:28:33.283Z,56.00
2018-08-23T23:31:03.484Z,56.00
2018-08-23T23:33:33.597Z,56.20
2018-08-23T23:36:03.783Z,56.40
2018-08-23T23:38:33.976Z,56.30
2018-08-23T23:41:04.157Z,56.40
2018-08-23T23:43:34.329Z,57.00
2018-08-23T23:46:04.560Z,57.50
2018-08-23T23:48:34.883Z,57.70
2018-08-23T23:51:05.721Z,57.90
2018-08-23T23:53:36.034Z,58.00
2018-08-23T23:56:06.281Z,58.90
2018-08-23T23:58:36.438Z,59.00
